Aérodrome :
LOGIN :

S'inscrire | Disclaimer

   EN    FR    IT 

 










Légende :    VFR   VFR Marginal   IFR   IFR Intensif   IFR Très Intensif
Visi : 
Plafond : 
>= 8 km
>= 3000ft
5 à 8 km
1000 à 3000 ft
1500m à 5 km
500 à 1000 ft
800 à 1500m
200 à 500 ft
< 800m
< 200 ft
Symboles :   Orages  Brouillard  Fortes neiges  Fortes précipitations  Vent > 20 kt
SIGMETs :   Divers  Orages  Givrage  Turbulence  Onde Orograph.  Cendres Volcan.







- Altitude de l'aérodrome : 79 ft
- Code IATA : NSY


LICZ - Sigonella (Mil) Catania

DERNIER METAR :
  • 220755Z 08019KT 5000 -RA BR BKN020 15/15 Q1014 RMK OVC VIS MIN 5000 WIND THR28 08017KT WIND THR10 08018KT A2996 WHT

METARs EXPIRÉS :
  • 220655Z 07018KT 6000 BKN015 15/15 Q1014 RMK OVC VIS MIN 6000 WIND THR28 07018KT WIND THR10 07020KT A2996 WHT
  • 220555Z 08019KT 6000 BKN020 15/15 Q1014 RMK OVC VIS MIN 6000 WIND THR28 07016KT WIND THR10 08017KT A2996 WHT

TAF TAF LICZ
Valide du 22 à 09h jusqu'au 22 à 18h UTC


220800Z 2209/2218 07015KT 9999 SCT020
TEMPO 2209/2212 08022KT 5000 BR BKN020
Pas de NOTAMs connus pour ce terrain.
1 SIGMET publié pour la FIR Roma (LIRR) :
 
Turbulence forte
LIRR SIGMET 3 VALID 220805/221205 LIIB
LIRR ROMA FIR SEV TURB FCST WI N3900 E00805 - N4250 E01304 - N4122 E01423 - N4107 E01507 - N3859 E01622 - N3626 E01708 - N3628 E01129 - N3728 E01128 - N3900 E00805 SFC/FL120 STNR NC=



MET'MAP, la Météo Aéronautique d'un coup d'oeil ! - Copyright ORBIFLY Décembre 2007 - Disclaimer

ORBIFLY MET'MAP TEAM :

Programmation & Développement : Alexandra Zaïnal
Conception & Développement : Baudouin d'Aumeries
Co-Programmation & Développement : Marc-Olivier Méhu
Soutien technique & logistique : Manuel Goepfert

Contact : metmap@orbifly.com




SOURCES & CREDITS :

   NOAA